Time;durP1;ratioP1;P1;durP2;ratioP2;P2;SDS_P1;SDS_P2;PMS_P1;PMS_P2;Temp;Humidity;BMP_temperature;BMP_pressure;BME280_temperature;BME280_humidity;BME280_pressure;Samples;Min_cycle;Max_cycle;Signal;HPM_P1;HPM_P2
2021/09/04 00:00:24;;;;;;;0.87;0.40;;;13.20;99.90;;;;;;5034374;28;20490;-63
2021/09/04 00:02:50;;;;;;;1.03;1.03;;;13.20;99.90;;;;;;5034578;28;20252;-63
2021/09/04 00:05:16;;;;;;;0.30;0.20;;;13.10;99.90;;;;;;5034400;28;20184;-63
2021/09/04 00:07:41;;;;;;;0.30;0.20;;;13.10;99.90;;;;;;5034247;28;20181;-63
2021/09/04 00:10:07;;;;;;;0.40;0.30;;;13.10;99.90;;;;;;5033403;28;20487;-63
2021/09/04 00:12:33;;;;;;;0.40;0.30;;;13.00;99.90;;;;;;5034259;28;20174;-63
2021/09/04 00:14:59;;;;;;;0.30;0.30;;;13.00;99.90;;;;;;5034187;28;20177;-63
2021/09/04 00:17:25;;;;;;;0.60;0.50;;;13.00;99.90;;;;;;5034194;28;20205;-63
2021/09/04 00:19:51;;;;;;;0.30;0.10;;;13.10;99.90;;;;;;5034272;28;20474;-63
2021/09/04 00:22:16;;;;;;;1.33;0.50;;;13.20;99.90;;;;;;5034316;28;20439;-64
2021/09/04 00:24:42;;;;;;;4.47;0.30;;;13.20;99.90;;;;;;5034026;28;20216;-68
2021/09/04 00:27:08;;;;;;;0.30;0.20;;;13.30;99.90;;;;;;5033950;28;20268;-68
2021/09/04 00:29:34;;;;;;;0.30;0.20;;;13.30;99.90;;;;;;5032904;28;20216;-69
2021/09/04 00:32:00;;;;;;;0.60;0.60;;;13.30;99.90;;;;;;5034149;28;20232;-69
2021/09/04 00:34:26;;;;;;;0.43;0.30;;;13.30;99.90;;;;;;5034068;28;20185;-68
2021/09/04 00:36:51;;;;;;;1.63;1.50;;;13.20;99.90;;;;;;5033843;28;20473;-68
2021/09/04 00:39:17;;;;;;;0.30;0.20;;;13.10;99.90;;;;;;5033824;28;20186;-69
2021/09/04 00:41:44;;;;;;;0.30;0.20;;;13.20;99.90;;;;;;5034054;28;20174;-69
2021/09/04 00:44:15;;;;;;;0.50;0.47;;;13.20;99.90;;;;;;5033903;28;20227;-69
2021/09/04 00:46:40;;;;;;;0.40;0.30;;;13.10;99.90;;;;;;5033857;28;20178;-68
2021/09/04 00:49:06;;;;;;;0.30;0.20;;;13.00;99.90;;;;;;5033886;28;20191;-68
2021/09/04 00:51:31;;;;;;;0.93;0.93;;;13.10;99.90;;;;;;5034070;28;20504;-68
2021/09/04 00:53:57;;;;;;;0.60;0.60;;;13.10;99.90;;;;;;5033853;28;20182;-68
2021/09/04 00:56:23;;;;;;;0.40;0.20;;;13.20;99.90;;;;;;5033957;28;20209;-68
2021/09/04 00:58:49;;;;;;;1.40;0.30;;;13.20;99.90;;;;;;5033478;28;20197;-68
2021/09/04 01:01:14;;;;;;;0.40;0.40;;;13.20;99.90;;;;;;5033756;28;20232;-64
2021/09/04 01:03:40;;;;;;;0.30;0.10;;;13.30;99.90;;;;;;5034229;28;20239;-64
2021/09/04 01:06:06;;;;;;;0.40;0.20;;;13.30;99.90;;;;;;5033847;28;20177;-63
2021/09/04 01:08:31;;;;;;;0.40;0.40;;;13.50;99.90;;;;;;5032379;28;20177;-64
2021/09/04 01:10:57;;;;;;;0.30;0.27;;;13.60;99.90;;;;;;5033771;28;20220;-64
2021/09/04 01:13:22;;;;;;;0.30;0.20;;;13.50;99.90;;;;;;5033727;28;20232;-64
2021/09/04 01:15:48;;;;;;;0.50;0.30;;;13.60;99.90;;;;;;5033665;28;20233;-64
2021/09/04 01:18:14;;;;;;;0.30;0.10;;;13.60;99.90;;;;;;5033620;28;20181;-64
2021/09/04 01:20:41;;;;;;;1.07;0.73;;;13.60;99.90;;;;;;5033845;28;20613;-68
2021/09/04 01:23:07;;;;;;;0.32;0.20;;;13.80;99.90;;;;;;5036787;28;21122;-67
2021/09/04 01:25:33;;;;;;;0.30;0.10;;;13.80;99.90;;;;;;5037393;28;20276;-67
2021/09/04 01:28:01;;;;;;;0.70;0.70;;;13.70;99.90;;;;;;5037232;28;20424;-64
2021/09/04 01:30:27;;;;;;;2.55;2.45;;;13.70;99.90;;;;;;5037072;28;20889;-67
2021/09/04 01:32:54;;;;;;;0.50;0.30;;;13.90;99.90;;;;;;5037040;28;20186;-67
2021/09/04 01:35:23;;;;;;;0.30;0.20;;;13.80;99.90;;;;;;5037227;28;20188;-68
2021/09/04 01:37:49;;;;;;;0.30;0.20;;;13.90;99.90;;;;;;5036993;28;20174;-67
2021/09/04 01:40:16;;;;;;;0.30;0.20;;;13.90;99.90;;;;;;5037044;28;20182;-68
2021/09/04 01:42:46;;;;;;;0.30;0.20;;;14.00;99.90;;;;;;5037029;28;20204;-67
2021/09/04 01:45:12;;;;;;;0.30;0.20;;;14.10;99.90;;;;;;5037097;28;20181;-64
2021/09/04 01:47:38;;;;;;;0.30;0.20;;;14.30;99.90;;;;;;5036729;28;20182;-68
2021/09/04 01:50:09;;;;;;;0.50;0.40;;;14.30;99.90;;;;;;5035585;28;20572;-64
2021/09/04 01:52:35;;;;;;;0.30;0.20;;;14.30;99.90;;;;;;5037197;28;20182;-64
2021/09/04 01:55:01;;;;;;;0.30;0.20;;;14.30;99.90;;;;;;5035886;28;20196;-64
2021/09/04 01:57:26;;;;;;;0.30;0.20;;;14.20;99.90;;;;;;5036491;28;20213;-68
2021/09/04 01:59:52;;;;;;;0.30;0.20;;;14.20;99.90;;;;;;5035725;28;20189;-64
2021/09/04 02:02:17;;;;;;;0.30;0.10;;;14.30;99.90;;;;;;5036778;28;20178;-69
2021/09/04 02:04:43;;;;;;;0.30;0.20;;;14.20;99.90;;;;;;5036645;28;20291;-68
2021/09/04 02:07:08;;;;;;;0.30;0.20;;;14.30;99.90;;;;;;5036465;28;20608;-64
2021/09/04 02:09:34;;;;;;;0.30;0.20;;;14.40;99.90;;;;;;5036435;28;20205;-68
2021/09/04 02:12:00;;;;;;;0.30;0.20;;;14.40;99.90;;;;;;5036523;28;20267;-67
2021/09/04 02:14:26;;;;;;;0.40;0.20;;;14.70;99.90;;;;;;5036474;28;20209;-64
2021/09/04 02:16:51;;;;;;;0.40;0.20;;;14.60;50.90;;;;;;5036182;28;20286;-64
2021/09/04 02:19:17;;;;;;;0.37;0.20;;;14.50;84.40;;;;;;5036172;28;20201;-68
2021/09/04 02:21:43;;;;;;;0.40;0.20;;;14.40;99.90;;;;;;5036336;28;20611;-68
2021/09/04 02:24:08;;;;;;;0.40;0.20;;;14.50;99.90;;;;;;5036353;28;20173;-67
2021/09/04 02:26:34;;;;;;;0.30;0.20;;;14.90;93.80;;;;;;5036251;28;20188;-68
2021/09/04 02:28:59;;;;;;;0.40;0.20;;;15.00;1.00;;;;;;5036043;28;20522;-68
2021/09/04 02:31:25;;;;;;;0.40;0.20;;;14.80;1.00;;;;;;5036096;28;20513;-67
2021/09/04 02:33:52;;;;;;;0.40;0.20;;;14.70;1.00;;;;;;5035244;28;20196;-64
2021/09/04 02:36:17;;;;;;;0.40;0.20;;;14.90;1.00;;;;;;5035980;28;20224;-64
2021/09/04 02:38:43;;;;;;;0.40;0.20;;;14.70;1.00;;;;;;5035812;28;20260;-64
2021/09/04 02:41:08;;;;;;;0.40;0.20;;;14.90;1.00;;;;;;5034823;28;20224;-64
2021/09/04 02:43:34;;;;;;;0.33;0.20;;;14.80;1.00;;;;;;5036011;28;20174;-64
2021/09/04 02:46:00;;;;;;;26.23;2.67;;;14.80;1.00;;;;;;5035952;28;20185;-64
2021/09/04 02:48:25;;;;;;;0.40;0.17;;;14.70;1.00;;;;;;5035641;28;20177;-64
2021/09/04 02:50:51;;;;;;;0.40;0.10;;;14.60;7.00;;;;;;5035738;28;20189;-64
2021/09/04 02:53:17;;;;;;;0.40;0.20;;;14.90;11.80;;;;;;5035769;28;20177;-68
2021/09/04 02:55:42;;;;;;;0.40;0.20;;;15.30;1.00;;;;;;5035633;28;20213;-68
2021/09/04 02:58:08;;;;;;;0.40;0.20;;;15.10;1.00;;;;;;5035428;28;20185;-65
2021/09/04 03:00:33;;;;;;;0.40;0.20;;;15.20;1.00;;;;;;5035709;28;20173;-67
2021/09/04 03:02:59;;;;;;;0.40;0.20;;;15.10;1.00;;;;;;5035507;28;20176;-68
2021/09/04 03:05:24;;;;;;;0.40;0.20;;;15.00;1.00;;;;;;5034459;28;20184;-67
2021/09/04 03:07:51;;;;;;;0.40;0.20;;;15.00;1.00;;;;;;5035375;28;20261;-67
2021/09/04 03:10:17;;;;;;;0.40;0.22;;;15.00;1.00;;;;;;5035365;28;20520;-64
2021/09/04 03:12:43;;;;;;;0.45;0.30;;;15.30;1.00;;;;;;5034308;28;20190;-69
2021/09/04 03:15:09;;;;;;;0.50;0.30;;;15.50;1.00;;;;;;5035319;28;20196;-64
2021/09/04 03:17:35;;;;;;;0.40;0.20;;;15.40;1.00;;;;;;5035109;28;20709;-64
2021/09/04 03:20:00;;;;;;;0.37;0.20;;;15.30;1.00;;;;;;5035068;28;20416;-64
2021/09/04 03:22:26;;;;;;;0.40;0.20;;;15.20;1.00;;;;;;5035181;28;20211;-67
2021/09/04 03:24:51;;;;;;;0.40;0.20;;;15.30;1.00;;;;;;5034939;28;20211;-68
2021/09/04 03:27:17;;;;;;;0.37;0.10;;;15.30;1.00;;;;;;5035033;28;20243;-68
2021/09/04 03:29:42;;;;;;;0.37;0.20;;;15.10;1.00;;;;;;5034929;28;20264;-68
2021/09/04 03:32:08;;;;;;;0.33;0.10;;;15.00;1.00;;;;;;5034952;28;20259;-67
2021/09/04 03:34:33;;;;;;;0.40;0.33;;;15.00;1.00;;;;;;5034900;28;20246;-64
2021/09/04 03:36:59;;;;;;;0.40;0.20;;;14.80;1.00;;;;;;5033514;28;20212;-64
2021/09/04 03:39:24;;;;;;;0.40;0.20;;;14.80;1.00;;;;;;5034700;28;20174;-64
2021/09/04 03:41:50;;;;;;;0.40;0.20;;;14.90;1.00;;;;;;5034809;28;20248;-63
2021/09/04 03:44:15;;;;;;;0.40;0.20;;;14.80;1.00;;;;;;5034623;28;20177;-66
2021/09/04 03:46:42;;;;;;;0.40;0.20;;;15.00;1.00;;;;;;5034506;28;20462;-68
2021/09/04 03:49:08;;;;;;;0.40;0.20;;;15.10;1.00;;;;;;5034465;28;20173;-68
2021/09/04 03:51:33;;;;;;;0.60;0.57;;;15.00;1.00;;;;;;5033587;28;20653;-67
2021/09/04 03:53:59;;;;;;;0.40;0.20;;;15.10;1.00;;;;;;5034652;28;20184;-67
2021/09/04 03:56:25;;;;;;;0.40;0.27;;;15.20;1.00;;;;;;5034237;28;20205;-67
2021/09/04 03:58:51;;;;;;;0.30;0.20;;;15.20;1.00;;;;;;5032923;28;20890;-67
2021/09/04 04:01:18;;;;;;;0.40;0.20;;;15.50;1.00;;;;;;5033216;28;20204;-69
2021/09/04 04:03:44;;;;;;;1.35;1.30;;;15.50;1.00;;;;;;5034569;28;20265;-69
2021/09/04 04:06:09;;;;;;;0.95;0.77;;;15.60;1.00;;;;;;5034186;28;20177;-67
2021/09/04 04:08:35;;;;;;;0.40;0.20;;;15.50;1.00;;;;;;5033023;28;20193;-69
2021/09/04 04:11:06;;;;;;;0.40;0.17;;;15.40;1.00;;;;;;5034139;28;20212;-70
2021/09/04 04:13:32;;;;;;;0.40;0.20;;;15.30;1.00;;;;;;5033816;28;20260;-69
2021/09/04 04:15:59;;;;;;;3.53;1.00;;;15.10;1.00;;;;;;5033681;28;20630;-68
2021/09/04 04:18:24;;;;;;;0.40;0.20;;;15.10;1.00;;;;;;5032598;28;20177;-68
2021/09/04 04:20:50;;;;;;;0.40;0.20;;;15.20;1.00;;;;;;5033665;28;20424;-70
2021/09/04 04:23:16;;;;;;;0.40;0.20;;;15.30;1.00;;;;;;5033871;28;20432;-69
2021/09/04 04:25:41;;;;;;;0.37;0.20;;;15.30;1.00;;;;;;5032366;28;20189;-69
2021/09/04 04:28:07;;;;;;;0.40;0.20;;;15.50;1.00;;;;;;5033440;28;20186;-65
2021/09/04 04:30:32;;;;;;;0.40;0.10;;;15.60;1.00;;;;;;5033706;28;20186;-68
2021/09/04 04:32:58;;;;;;;0.40;0.10;;;15.60;1.00;;;;;;5032585;28;20196;-64
2021/09/04 04:35:24;;;;;;;0.40;0.10;;;15.80;1.00;;;;;;5033640;28;20185;-64
2021/09/04 04:37:50;;;;;;;0.40;0.20;;;16.00;1.00;;;;;;5033671;28;20760;-64
2021/09/04 04:40:18;;;;;;;0.40;0.20;;;15.90;99.90;;;;;;5032942;28;20480;-68
2021/09/04 04:42:44;;;;;;;0.50;0.32;;;15.50;1.00;;;;;;5033607;28;20189;-68
2021/09/04 04:45:10;;;;;;;0.40;0.17;;;15.60;1.00;;;;;;5033812;28;20180;-68
2021/09/04 04:47:36;;;;;;;0.40;0.20;;;15.60;1.00;;;;;;5033484;28;20571;-69
2021/09/04 04:50:03;;;;;;;0.40;0.20;;;15.50;1.00;;;;;;5032917;28;20216;-69
2021/09/04 04:52:29;;;;;;;0.40;0.20;;;15.80;1.00;;;;;;5033500;28;20432;-68
2021/09/04 04:54:55;;;;;;;0.40;0.20;;;15.80;1.00;;;;;;5033352;28;20185;-69
2021/09/04 04:57:20;;;;;;;0.40;0.20;;;15.70;1.00;;;;;;5034047;28;20209;-68
2021/09/04 04:59:46;;;;;;;0.40;0.20;;;15.80;1.00;;;;;;5037248;28;20191;-69
2021/09/04 05:02:11;;;;;;;0.40;0.20;;;15.80;1.00;;;;;;5037186;28;20177;-68
2021/09/04 05:04:37;;;;;;;0.40;0.10;;;16.00;1.00;;;;;;5037295;28;20186;-70
2021/09/04 05:07:03;;;;;;;0.40;0.20;;;16.10;1.00;;;;;;5036146;28;20669;-68
2021/09/04 05:09:28;;;;;;;0.40;0.20;;;16.00;1.00;;;;;;5037133;28;20260;-64
2021/09/04 05:11:54;;;;;;;0.70;0.70;;;16.10;1.00;;;;;;5037384;28;20464;-69
2021/09/04 05:14:20;;;;;;;0.40;0.20;;;16.00;1.00;;;;;;5037129;28;20177;-69
2021/09/04 05:16:46;;;;;;;0.40;0.20;;;16.20;1.00;;;;;;5037018;28;20204;-70
2021/09/04 05:19:12;;;;;;;0.40;0.20;;;16.10;1.00;;;;;;5036881;28;20432;-69
2021/09/04 05:21:37;;;;;;;0.40;0.20;;;16.50;1.00;;;;;;5036965;28;20184;-70
2021/09/04 05:24:04;;;;;;;0.40;0.20;;;16.40;99.90;;;;;;5035886;28;20181;-69
2021/09/04 05:26:29;;;;;;;0.40;0.20;;;16.20;99.90;;;;;;5036747;28;20213;-70
2021/09/04 05:28:55;;;;;;;0.40;0.20;;;16.20;99.90;;;;;;5036489;28;20213;-68
2021/09/04 05:31:20;;;;;;;0.40;0.20;;;16.20;1.00;;;;;;5036673;28;20188;-69
2021/09/04 05:33:46;;;;;;;0.40;0.20;;;16.10;99.90;;;;;;5036937;28;20178;-69
2021/09/04 05:36:12;;;;;;;0.40;0.20;;;16.10;1.00;;;;;;5036457;28;20650;-70
2021/09/04 05:38:37;;;;;;;0.40;0.20;;;16.10;1.00;;;;;;5036340;28;20173;-69
2021/09/04 05:41:04;;;;;;;0.40;0.20;;;16.10;1.00;;;;;;5036464;28;20246;-70
2021/09/04 05:43:30;;;;;;;1.07;0.60;;;16.20;1.00;;;;;;5036585;28;20420;-65
2021/09/04 05:45:55;;;;;;;0.40;0.20;;;16.50;99.90;;;;;;5036470;28;20558;-69
2021/09/04 05:48:21;;;;;;;0.40;0.20;;;16.30;99.90;;;;;;5035947;28;20627;-68
2021/09/04 05:50:47;;;;;;;0.40;0.20;;;16.30;99.90;;;;;;5036259;28;20194;-68
2021/09/04 05:53:12;;;;;;;1.33;1.13;;;16.40;99.90;;;;;;5035428;28;20193;-68
2021/09/04 05:55:38;;;;;;;0.40;0.20;;;16.10;99.90;;;;;;5035168;28;20185;-68
2021/09/04 05:58:03;;;;;;;0.40;0.20;;;16.10;1.00;;;;;;5035864;28;20181;-65
2021/09/04 06:00:29;;;;;;;0.40;0.20;;;16.40;1.00;;;;;;5035917;28;20603;-65
2021/09/04 06:02:54;;;;;;;0.50;0.30;;;16.50;99.90;;;;;;5035920;28;20244;-65
2021/09/04 06:05:20;;;;;;;0.40;0.10;;;16.40;99.90;;;;;;5036263;28;20260;-68
2021/09/04 06:07:45;;;;;;;0.40;0.20;;;16.20;99.90;;;;;;5035448;28;20186;-65
2021/09/04 06:10:11;;;;;;;0.40;0.20;;;16.00;1.00;;;;;;5035409;28;20177;-64
2021/09/04 06:12:37;;;;;;;0.40;0.20;;;16.10;1.00;;;;;;5035971;28;20599;-64
2021/09/04 06:15:03;;;;;;;0.40;0.13;;;16.20;1.00;;;;;;5034888;28;20186;-64
2021/09/04 06:17:29;;;;;;;0.40;0.20;;;16.40;1.00;;;;;;5035638;28;20209;-65
2021/09/04 06:19:54;;;;;;;0.40;0.20;;;16.60;1.00;;;;;;5034782;28;20416;-65
2021/09/04 06:22:20;;;;;;;1.33;1.17;;;16.60;99.90;;;;;;5034851;28;20178;-64
2021/09/04 06:24:46;;;;;;;2.60;1.47;;;16.50;99.90;;;;;;5034823;28;20186;-64
2021/09/04 06:27:11;;;;;;;0.40;0.20;;;16.20;1.00;;;;;;5035646;28;20189;-64
2021/09/04 06:29:37;;;;;;;1.13;0.43;;;16.20;1.00;;;;;;5034542;28;20192;-64
2021/09/04 06:32:05;;;;;;;0.40;0.20;;;16.30;99.90;;;;;;5035427;28;20265;-65
2021/09/04 06:34:31;;;;;;;0.40;0.20;;;16.60;99.90;;;;;;5035642;28;20251;-64
2021/09/04 06:36:56;;;;;;;0.40;0.20;;;16.60;99.90;;;;;;5038459;28;20506;-68
2021/09/04 06:39:22;;;;;;;0.40;0.10;;;16.60;99.90;;;;;;5052704;28;20987;-69
2021/09/04 06:41:47;;;;;;;0.40;0.20;;;16.70;99.90;;;;;;5055124;28;20185;-68
2021/09/04 06:44:13;;;;;;;0.40;0.20;;;16.70;99.90;;;;;;5055015;28;20169;-69
2021/09/04 06:46:38;;;;;;;0.40;0.20;;;16.70;99.90;;;;;;5054984;28;20193;-68
2021/09/04 06:49:04;;;;;;;0.40;0.10;;;16.80;99.90;;;;;;5054380;28;20192;-68
2021/09/04 06:51:29;;;;;;;0.53;0.40;;;16.90;99.90;;;;;;5054743;28;20609;-70
2021/09/04 06:53:55;;;;;;;0.40;0.20;;;17.10;1.00;;;;;;5054958;28;20177;-69
2021/09/04 06:56:20;;;;;;;0.40;0.20;;;17.20;1.00;;;;;;5053927;28;20208;-69
2021/09/04 06:58:46;;;;;;;1.37;1.37;;;17.00;1.00;;;;;;5054614;28;20188;-69
2021/09/04 07:01:11;;;;;;;3.90;3.60;;;16.80;1.00;;;;;;5054890;28;20195;-69
2021/09/04 07:03:37;;;;;;;0.40;0.17;;;16.60;26.90;;;;;;5054842;28;20176;-70
2021/09/04 07:06:04;;;;;;;0.40;0.23;;;16.80;99.90;;;;;;5053751;28;20192;-70
2021/09/04 07:08:30;;;;;;;0.40;0.20;;;16.90;1.00;;;;;;5054456;28;20469;-69
2021/09/04 07:10:56;;;;;;;3.13;1.70;;;16.70;13.90;;;;;;5054743;28;20438;-69
2021/09/04 07:13:21;;;;;;;0.83;0.43;;;16.50;20.50;;;;;;5054740;28;20892;-69
2021/09/04 07:15:47;;;;;;;0.40;0.20;;;16.50;99.90;;;;;;5054517;28;20188;-69
2021/09/04 07:18:13;;;;;;;0.77;0.77;;;16.90;42.80;;;;;;5054363;28;20177;-69
2021/09/04 07:20:39;;;;;;;0.40;0.20;;;16.90;1.00;;;;;;5054273;28;20199;-69
2021/09/04 07:23:04;;;;;;;1.90;1.80;;;17.00;99.90;;;;;;5054836;28;20419;-69
2021/09/04 07:25:30;;;;;;;0.40;0.20;;;16.80;1.00;;;;;;5054258;28;20189;-69
2021/09/04 07:27:55;;;;;;;0.40;0.20;;;16.80;1.00;;;;;;5054424;28;20252;-69
2021/09/04 07:30:21;;;;;;;0.80;0.20;;;17.40;1.00;;;;;;5054159;28;20169;-68
2021/09/04 07:32:46;;;;;;;0.60;0.30;;;17.50;1.00;;;;;;5054391;28;20259;-69
2021/09/04 07:35:12;;;;;;;0.40;0.20;;;17.50;1.00;;;;;;5053157;28;20177;-69
2021/09/04 07:37:37;;;;;;;0.40;0.20;;;17.60;1.00;;;;;;5053985;28;20579;-69
2021/09/04 07:40:06;;;;;;;0.50;0.20;;;17.40;1.00;;;;;;5053994;28;20181;-67
2021/09/04 07:42:32;;;;;;;0.40;0.20;;;17.40;1.00;;;;;;5054074;28;20173;-70
2021/09/04 07:44:58;;;;;;;1.63;1.53;;;17.20;1.00;;;;;;5052572;28;20431;-70
2021/09/04 07:47:23;;;;;;;2.30;0.80;;;17.40;99.90;;;;;;5052310;28;20597;-69
2021/09/04 07:49:49;;;;;;;0.53;0.47;;;17.20;99.90;;;;;;5053940;28;20554;-68
2021/09/04 07:52:14;;;;;;;0.40;0.20;;;17.40;1.00;;;;;;5053895;28;20227;-69
2021/09/04 07:54:40;;;;;;;0.40;0.27;;;17.80;77.10;;;;;;5054016;28;20177;-68
2021/09/04 07:57:05;;;;;;;1.37;0.87;;;18.10;99.90;;;;;;5053342;28;20227;-68
2021/09/04 07:59:31;;;;;;;0.40;0.20;;;18.20;1.00;;;;;;5053540;28;20283;-68
2021/09/04 08:01:56;;;;;;;0.40;0.20;;;18.20;99.90;;;;;;5053725;28;20181;-67
2021/09/04 08:04:22;;;;;;;1.70;1.60;;;18.10;99.90;;;;;;5053772;28;20204;-68
2021/09/04 08:06:48;;;;;;;3.43;1.60;;;17.80;99.90;;;;;;5053909;28;20177;-68
2021/09/04 08:09:13;;;;;;;0.60;0.50;;;17.60;1.00;;;;;;5052699;28;20261;-69
2021/09/04 08:11:39;;;;;;;0.70;0.70;;;17.30;99.90;;;;;;5053469;28;20192;-69
2021/09/04 08:14:04;;;;;;;0.40;0.20;;;17.00;1.00;;;;;;5053505;28;20176;-69
2021/09/04 08:16:30;;;;;;;0.50;0.40;;;17.10;1.00;;;;;;5053493;28;20654;-68
2021/09/04 08:18:55;;;;;;;2.00;0.83;;;17.50;99.90;;;;;;5053280;28;20207;-68
2021/09/04 08:21:21;;;;;;;1.80;0.73;;;17.30;1.00;;;;;;5053405;28;20189;-68
2021/09/04 08:23:46;;;;;;;3.23;1.73;;;17.10;99.90;;;;;;5053557;28;20313;-68
2021/09/04 08:26:12;;;;;;;1.37;0.77;;;17.00;99.90;;;;;;5053543;28;20188;-69
2021/09/04 08:28:38;;;;;;;0.40;0.20;;;17.30;99.90;;;;;;5053260;28;20602;-68
2021/09/04 08:31:03;;;;;;;0.57;0.50;;;17.20;1.00;;;;;;5052832;28;20181;-66
2021/09/04 08:33:29;;;;;;;2.03;1.93;;;17.50;99.90;;;;;;5052929;28;20187;-71
2021/09/04 08:35:54;;;;;;;0.60;0.50;;;18.00;99.90;;;;;;5043029;28;20270;-71
2021/09/04 08:38:20;;;;;;;0.40;0.20;;;18.70;1.00;;;;;;5051255;28;20184;-69
2021/09/04 08:40:46;;;;;;;0.50;0.40;;;18.60;1.00;;;;;;5052212;28;20189;-67
2021/09/04 08:43:12;;;;;;;0.40;0.10;;;18.40;1.00;;;;;;5053074;28;20192;-68
2021/09/04 08:45:38;;;;;;;1.07;1.07;;;18.70;1.00;;;;;;5052794;28;20438;-69
2021/09/04 08:48:07;;;;;;;0.40;0.20;;;19.40;99.90;;;;;;5053189;28;20283;-69
2021/09/04 08:50:35;;;;;;;1.40;1.20;;;19.70;99.90;;;;;;5049610;28;20511;-70
2021/09/04 08:53:02;;;;;;;1.80;1.07;;;19.20;99.90;;;;;;5050467;28;20439;-70
2021/09/04 08:55:31;;;;;;;0.50;0.20;;;18.50;1.00;;;;;;5053023;28;20977;-70
2021/09/04 08:57:59;;;;;;;0.40;0.30;;;18.80;1.00;;;;;;5053150;28;20839;-70
2021/09/04 09:00:34;;;;;;;2.33;0.90;;;19.30;1.00;;;;;;5051616;28;20427;-70
2021/09/04 09:03:00;;;;;;;0.63;0.63;;;19.10;1.00;;;;;;5048544;28;20488;-70
2021/09/04 09:05:47;;;;;;;0.40;0.20;;;18.50;1.00;;;;;;5051855;28;20561;-70
2021/09/04 09:08:21;;;;;;;0.40;0.20;;;19.10;1.00;;;;;;5051681;28;20450;-70
2021/09/04 09:10:46;;;;;;;0.50;0.27;;;19.90;99.90;;;;;;5047488;28;20431;-68
2021/09/04 09:13:17;;;;;;;0.40;0.20;;;19.80;99.90;;;;;;5052911;28;20435;-68
2021/09/04 09:15:43;;;;;;;0.87;0.53;;;18.90;1.00;;;;;;5052888;28;20181;-68
2021/09/04 09:18:13;;;;;;;0.97;0.83;;;19.00;1.00;;;;;;5052611;28;20437;-69
2021/09/04 09:20:55;;;;;;;0.50;0.30;;;19.00;1.00;;;;;;5052909;28;20622;-70
2021/09/04 09:23:22;;;;;;;0.50;0.20;;;19.30;1.00;;;;;;5052917;28;20458;-70
2021/09/04 09:25:48;;;;;;;1.13;0.80;;;19.70;99.90;;;;;;5052720;28;20433;-68
2021/09/04 09:28:18;;;;;;;1.77;0.33;;;19.70;99.90;;;;;;5051444;28;20506;-68
2021/09/04 09:30:52;;;;;;;1.43;0.60;;;19.50;1.00;;;;;;5052689;28;20437;-69
2021/09/04 09:33:20;;;;;;;1.33;1.07;;;19.40;1.00;;;;;;5051947;28;20587;-68
2021/09/04 09:35:48;;;;;;;0.50;0.30;;;19.20;1.00;;;;;;5051395;28;20436;-71
2021/09/04 09:38:17;;;;;;;0.40;0.20;;;19.20;1.00;;;;;;5051551;28;20477;-67
2021/09/04 09:40:43;;;;;;;0.50;0.30;;;19.00;13.80;;;;;;5048260;28;20446;-70
2021/09/04 09:43:16;;;;;;;2.20;0.50;;;19.30;1.00;;;;;;5053661;28;20947;-68
2021/09/04 09:45:43;;;;;;;0.40;0.20;;;19.30;1.00;;;;;;5055880;28;20430;-66
2021/09/04 09:48:08;;;;;;;0.40;0.20;;;19.30;1.00;;;;;;5055762;28;20423;-71
2021/09/04 09:50:35;;;;;;;0.40;0.10;;;19.10;99.90;;;;;;5056003;28;20450;-68
2021/09/04 09:53:02;;;;;;;0.50;0.20;;;19.50;94.50;;;;;;5053771;28;20185;-67
2021/09/04 09:55:28;;;;;;;0.40;0.20;;;20.00;1.00;;;;;;5054629;28;20411;-68
2021/09/04 09:57:56;;;;;;;0.50;0.30;;;20.40;1.00;;;;;;5050879;28;21013;-69
2021/09/04 10:00:22;;;;;;;1.83;0.90;;;20.30;1.00;;;;;;5048687;28;20452;-68
2021/09/04 10:02:49;;;;;;;11.13;0.90;;;19.40;99.90;;;;;;5044460;28;20462;-69
2021/09/04 10:05:17;;;;;;;2.50;0.50;;;19.40;99.90;;;;;;5048866;28;20630;-69
2021/09/04 10:07:43;;;;;;;0.40;0.20;;;19.30;98.90;;;;;;5054571;28;20435;-69
2021/09/04 10:10:09;;;;;;;2.00;1.70;;;19.30;99.90;;;;;;5053406;28;20427;-70
2021/09/04 10:12:34;;;;;;;1.10;0.60;;;19.40;99.90;;;;;;5055891;28;20191;-69
2021/09/04 10:15:00;;;;;;;0.40;0.20;;;19.90;99.90;;;;;;5054861;28;20435;-69
2021/09/04 10:17:26;;;;;;;2.13;2.00;;;19.80;47.50;;;;;;5055384;28;20230;-68
2021/09/04 10:19:52;;;;;;;1.10;0.53;;;19.40;99.90;;;;;;5055898;28;20184;-68
2021/09/04 10:22:18;;;;;;;0.50;0.30;;;19.10;1.00;;;;;;5055801;28;20172;-67
2021/09/04 10:24:49;;;;;;;1.17;1.07;;;19.40;1.00;;;;;;5056598;28;20434;-67
2021/09/04 10:27:35;;;;;;;1.33;0.30;;;19.70;99.90;;;;;;5056568;28;20781;-66
2021/09/04 10:30:24;;;;;;;0.70;0.70;;;19.60;1.00;;;;;;5056162;28;20450;-66
2021/09/04 10:33:10;;;;;;;0.50;0.20;;;18.60;99.90;;;;;;5055695;28;20451;-68
2021/09/04 10:35:48;;;;;;;0.67;0.60;;;18.50;99.90;;;;;;5037287;28;20961;-64
2021/09/04 10:38:19;;;;;;;0.40;0.20;;;18.70;1.00;;;;;;5035468;28;20431;-65
2021/09/04 10:40:50;;;;;;;0.50;0.30;;;19.10;99.90;;;;;;5035787;28;20424;-67
2021/09/04 10:43:18;;;;;;;0.40;0.20;;;19.30;99.90;;;;;;5035786;28;20483;-68
2021/09/04 10:45:48;;;;;;;0.40;0.20;;;19.50;1.00;;;;;;5044536;28;20504;-69
2021/09/04 10:48:16;;;;;;;3.10;1.07;;;20.10;1.00;;;;;;5055623;28;20431;-69
2021/09/04 10:50:59;;;;;;;1.07;0.97;;;20.10;24.70;;;;;;5055708;28;20505;-66
2021/09/04 10:53:47;;;;;;;0.50;0.20;;;19.60;99.90;;;;;;5055224;28;20427;-69
2021/09/04 10:56:31;;;;;;;0.40;0.20;;;18.50;99.90;;;;;;5054921;28;20512;-69
2021/09/04 10:58:57;;;;;;;0.50;0.30;;;18.50;99.90;;;;;;5055334;28;20863;-65
2021/09/04 11:01:32;;;;;;;0.47;0.30;;;18.80;1.00;;;;;;5054277;28;21049;-65
2021/09/04 11:03:58;;;;;;;1.80;1.13;;;19.30;99.90;;;;;;5055412;28;20414;-68
2021/09/04 11:06:25;;;;;;;0.40;0.20;;;19.80;1.00;;;;;;5054230;28;20442;-69
2021/09/04 11:08:52;;;;;;;0.93;0.60;;;20.10;1.00;;;;;;5054946;28;20644;-68
2021/09/04 11:11:18;;;;;;;0.43;0.20;;;19.60;1.00;;;;;;5055254;28;20427;-68
2021/09/04 11:14:05;;;;;;;0.40;0.10;;;19.80;1.00;;;;;;5054911;28;20473;-68
2021/09/04 11:16:34;;;;;;;0.40;0.20;;;20.00;1.00;;;;;;5054836;28;20560;-69
2021/09/04 11:19:01;;;;;;;0.40;0.20;;;20.30;1.00;;;;;;5055233;28;20455;-68
2021/09/04 11:21:27;;;;;;;0.73;0.73;;;20.70;99.90;;;;;;5055588;28;20500;-68
2021/09/04 11:23:53;;;;;;;1.03;1.03;;;20.30;1.00;;;;;;5055384;28;20864;-68
2021/09/04 11:26:18;;;;;;;3.70;1.40;;;20.10;1.00;;;;;;5055836;28;20271;-67
2021/09/04 11:28:56;;;;;;;0.40;0.20;;;19.10;1.00;;;;;;5054514;28;20458;-69
2021/09/04 11:31:22;;;;;;;0.40;0.20;;;19.20;1.00;;;;;;5054858;28;20177;-68
2021/09/04 11:33:55;;;;;;;3.30;1.50;;;19.90;10.20;;;;;;5054808;28;20507;-68
2021/09/04 11:36:28;;;;;;;0.40;0.20;;;20.60;99.90;;;;;;5053694;28;20467;-67
2021/09/04 11:38:55;;;;;;;0.50;0.30;;;20.80;99.90;;;;;;5054521;28;20423;-68
2021/09/04 11:41:20;;;;;;;0.50;0.20;;;20.10;1.00;;;;;;5044939;28;20442;-68
2021/09/04 11:43:46;;;;;;;0.40;0.20;;;19.80;99.90;;;;;;5051485;28;20762;-65
2021/09/04 11:46:12;;;;;;;0.90;0.70;;;20.10;1.00;;;;;;5053534;28;20288;-65
2021/09/04 11:48:37;;;;;;;0.40;0.20;;;19.50;1.00;;;;;;5053725;28;20185;-65
2021/09/04 11:51:07;;;;;;;4.43;2.30;;;19.50;1.00;;;;;;5051269;28;20236;-67
2021/09/04 11:53:33;;;;;;;0.40;0.20;;;19.70;1.00;;;;;;5042853;28;20202;-67
2021/09/04 11:55:58;;;;;;;0.40;0.10;;;19.70;1.00;;;;;;5044250;28;20975;-67
2021/09/04 11:58:26;;;;;;;0.40;0.20;;;19.80;1.00;;;;;;5036090;28;20550;-68
2021/09/04 12:00:51;;;;;;;0.40;0.10;;;20.00;99.90;;;;;;5033752;28;20186;-68
2021/09/04 12:03:25;;;;;;;0.40;0.20;;;19.80;49.70;;;;;;5033738;28;20473;-70
2021/09/04 12:05:51;;;;;;;0.40;0.20;;;19.90;83.00;;;;;;5038674;28;20627;-69
2021/09/04 12:08:22;;;;;;;0.50;0.20;;;20.10;99.90;;;;;;5041208;28;20465;-70
2021/09/04 12:10:48;;;;;;;0.40;0.20;;;21.00;1.00;;;;;;5044439;28;20204;-68
2021/09/04 12:13:27;;;;;;;0.40;0.20;;;21.60;99.90;;;;;;5047756;28;20427;-69
2021/09/04 12:15:57;;;;;;;1.00;0.77;;;22.40;99.90;;;;;;5053630;28;20442;-69
2021/09/04 12:18:31;;;;;;;0.50;0.30;;;22.80;1.00;;;;;;5053443;28;20506;-69
2021/09/04 12:21:17;;;;;;;0.50;0.20;;;22.80;1.00;;;;;;5053758;28;20580;-69
2021/09/04 12:23:46;;;;;;;2.37;0.83;;;23.10;1.00;;;;;;5054483;28;20522;-69
2021/09/04 12:26:12;;;;;;;0.50;0.20;;;22.90;1.00;;;;;;5053989;28;20431;-69
2021/09/04 12:28:38;;;;;;;0.50;0.20;;;21.90;1.00;;;;;;5043276;28;20442;-68
2021/09/04 12:31:10;;;;;;;0.50;0.20;;;21.80;1.00;;;;;;5043878;28;20282;-68
2021/09/04 12:33:50;;;;;;;0.50;0.20;;;22.00;1.00;;;;;;5044594;28;20439;-68
2021/09/04 12:36:26;;;;;;;0.60;0.40;;;21.90;1.00;;;;;;5044754;28;20532;-69
2021/09/04 12:38:53;;;;;;;0.50;0.23;;;21.90;1.00;;;;;;5042028;28;20799;-70
2021/09/04 12:41:19;;;;;;;0.40;0.17;;;21.90;1.00;;;;;;5044263;28;20500;-68
2021/09/04 12:43:54;;;;;;;1.50;1.40;;;22.50;1.00;;;;;;5042596;28;20435;-67
2021/09/04 12:46:27;;;;;;;0.40;0.20;;;22.10;1.00;;;;;;5044098;28;20510;-67
2021/09/04 12:48:53;;;;;;;0.50;0.20;;;21.10;99.90;;;;;;5048808;28;20431;-68
2021/09/04 12:51:19;;;;;;;0.40;0.20;;;21.50;85.00;;;;;;5042266;28;20734;-69